sensor_id;sensor_type;location;lat;lon;timestamp;temperature;humidity
22081;DHT22;11207;59.512;18.050;2023-10-19T00:00:34;2.80;99.90
22081;DHT22;11207;59.512;18.050;2023-10-19T00:03:01;2.80;99.90
22081;DHT22;11207;59.512;18.050;2023-10-19T00:05:29;2.80;99.90
22081;DHT22;11207;59.512;18.050;2023-10-19T00:07:56;2.80;99.90
22081;DHT22;11207;59.512;18.050;2023-10-19T00:10:26;2.90;99.90
22081;DHT22;11207;59.512;18.050;2023-10-19T00:12:58;2.90;99.90
22081;DHT22;11207;59.512;18.050;2023-10-19T00:15:34;2.80;99.90
22081;DHT22;11207;59.512;18.050;2023-10-19T00:18:05;2.80;99.90
22081;DHT22;11207;59.512;18.050;2023-10-19T00:20:46;2.80;99.90
22081;DHT22;11207;59.512;18.050;2023-10-19T00:23:17;2.70;99.90
22081;DHT22;11207;59.512;18.050;2023-10-19T00:25:46;2.70;99.90
22081;DHT22;11207;59.512;18.050;2023-10-19T00:28:17;2.60;99.90
22081;DHT22;11207;59.512;18.050;2023-10-19T00:30:44;2.60;99.90
22081;DHT22;11207;59.512;18.050;2023-10-19T00:33:11;2.60;99.90
22081;DHT22;11207;59.512;18.050;2023-10-19T00:35:48;2.60;99.90
22081;DHT22;11207;59.512;18.050;2023-10-19T00:38:27;2.60;99.90
22081;DHT22;11207;59.512;18.050;2023-10-19T00:40:54;2.70;99.90
22081;DHT22;11207;59.512;18.050;2023-10-19T00:43:36;2.70;99.90
22081;DHT22;11207;59.512;18.050;2023-10-19T00:46:03;2.70;99.90
22081;DHT22;11207;59.512;18.050;2023-10-19T00:48:44;2.60;99.90
22081;DHT22;11207;59.512;18.050;2023-10-19T00:51:12;2.60;99.90
22081;DHT22;11207;59.512;18.050;2023-10-19T00:54:32;2.60;99.90
22081;DHT22;11207;59.512;18.050;2023-10-19T00:57:01;2.60;99.90
22081;DHT22;11207;59.512;18.050;2023-10-19T00:59:34;2.60;99.90
22081;DHT22;11207;59.512;18.050;2023-10-19T01:02:13;2.60;99.90
22081;DHT22;11207;59.512;18.050;2023-10-19T01:04:44;2.60;99.90
22081;DHT22;11207;59.512;18.050;2023-10-19T01:07:11;2.60;99.90
22081;DHT22;11207;59.512;18.050;2023-10-19T01:09:45;2.70;99.90
22081;DHT22;11207;59.512;18.050;2023-10-19T01:12:11;2.60;99.90
22081;DHT22;11207;59.512;18.050;2023-10-19T01:15:22;2.60;99.90
22081;DHT22;11207;59.512;18.050;2023-10-19T01:17:58;2.60;99.90
22081;DHT22;11207;59.512;18.050;2023-10-19T01:20:30;2.70;99.90
22081;DHT22;11207;59.512;18.050;2023-10-19T01:23:00;2.70;99.90
22081;DHT22;11207;59.512;18.050;2023-10-19T01:28:10;2.60;99.90
22081;DHT22;11207;59.512;18.050;2023-10-19T01:30:37;2.60;99.90
22081;DHT22;11207;59.512;18.050;2023-10-19T01:33:04;2.60;99.90
22081;DHT22;11207;59.512;18.050;2023-10-19T01:35:34;2.50;99.90
22081;DHT22;11207;59.512;18.050;2023-10-19T01:38:18;2.50;99.90
22081;DHT22;11207;59.512;18.050;2023-10-19T01:40:44;2.40;99.90
22081;DHT22;11207;59.512;18.050;2023-10-19T01:43:14;2.40;99.90
22081;DHT22;11207;59.512;18.050;2023-10-19T01:45:49;2.30;99.90
22081;DHT22;11207;59.512;18.050;2023-10-19T01:48:19;2.30;99.90
22081;DHT22;11207;59.512;18.050;2023-10-19T01:50:48;2.20;99.90
22081;DHT22;11207;59.512;18.050;2023-10-19T01:53:19;2.20;99.90
22081;DHT22;11207;59.512;18.050;2023-10-19T01:55:50;2.20;99.90
22081;DHT22;11207;59.512;18.050;2023-10-19T01:58:23;2.20;99.90
22081;DHT22;11207;59.512;18.050;2023-10-19T02:00:54;2.20;99.90
22081;DHT22;11207;59.512;18.050;2023-10-19T02:03:21;2.20;99.90
22081;DHT22;11207;59.512;18.050;2023-10-19T02:06:00;2.20;99.90
22081;DHT22;11207;59.512;18.050;2023-10-19T02:08:27;2.20;99.90
22081;DHT22;11207;59.512;18.050;2023-10-19T02:10:53;2.20;99.90
22081;DHT22;11207;59.512;18.050;2023-10-19T02:13:22;2.20;99.90
22081;DHT22;11207;59.512;18.050;2023-10-19T02:15:48;2.30;99.90
22081;DHT22;11207;59.512;18.050;2023-10-19T02:18:15;2.30;99.90
22081;DHT22;11207;59.512;18.050;2023-10-19T02:20:42;2.30;99.90
22081;DHT22;11207;59.512;18.050;2023-10-19T02:23:13;2.30;99.90
22081;DHT22;11207;59.512;18.050;2023-10-19T02:25:40;2.50;99.90
22081;DHT22;11207;59.512;18.050;2023-10-19T02:28:06;2.30;99.90
22081;DHT22;11207;59.512;18.050;2023-10-19T02:30:34;2.40;99.90
22081;DHT22;11207;59.512;18.050;2023-10-19T02:33:01;2.30;99.90
22081;DHT22;11207;59.512;18.050;2023-10-19T02:35:27;2.30;99.90
22081;DHT22;11207;59.512;18.050;2023-10-19T02:37:53;2.30;99.90
22081;DHT22;11207;59.512;18.050;2023-10-19T02:40:21;2.20;99.90
22081;DHT22;11207;59.512;18.050;2023-10-19T02:42:49;2.20;99.90
22081;DHT22;11207;59.512;18.050;2023-10-19T02:45:19;2.10;99.90
22081;DHT22;11207;59.512;18.050;2023-10-19T02:47:45;2.10;99.90
22081;DHT22;11207;59.512;18.050;2023-10-19T02:50:12;2.00;99.90
22081;DHT22;11207;59.512;18.050;2023-10-19T02:52:43;1.90;99.90
22081;DHT22;11207;59.512;18.050;2023-10-19T02:55:09;1.90;99.90
22081;DHT22;11207;59.512;18.050;2023-10-19T02:57:36;1.90;99.90
22081;DHT22;11207;59.512;18.050;2023-10-19T03:00:05;1.80;99.90
22081;DHT22;11207;59.512;18.050;2023-10-19T03:02:37;1.80;99.90
22081;DHT22;11207;59.512;18.050;2023-10-19T03:05:04;1.80;99.90
22081;DHT22;11207;59.512;18.050;2023-10-19T03:07:38;1.70;99.90
22081;DHT22;11207;59.512;18.050;2023-10-19T03:10:05;1.70;99.90
22081;DHT22;11207;59.512;18.050;2023-10-19T03:12:31;1.60;99.90
22081;DHT22;11207;59.512;18.050;2023-10-19T03:14:58;1.60;99.90
22081;DHT22;11207;59.512;18.050;2023-10-19T03:17:26;1.60;99.90
22081;DHT22;11207;59.512;18.050;2023-10-19T03:19:53;1.50;99.90
22081;DHT22;11207;59.512;18.050;2023-10-19T03:22:19;1.50;99.90
22081;DHT22;11207;59.512;18.050;2023-10-19T03:24:45;1.50;99.90
22081;DHT22;11207;59.512;18.050;2023-10-19T03:27:12;1.40;99.90
22081;DHT22;11207;59.512;18.050;2023-10-19T03:29:47;1.40;99.90
22081;DHT22;11207;59.512;18.050;2023-10-19T03:32:18;1.30;99.90
22081;DHT22;11207;59.512;18.050;2023-10-19T03:34:47;1.40;99.90
22081;DHT22;11207;59.512;18.050;2023-10-19T03:37:14;1.40;99.90
22081;DHT22;11207;59.512;18.050;2023-10-19T03:39:41;1.30;99.90
22081;DHT22;11207;59.512;18.050;2023-10-19T03:42:07;1.30;99.90
22081;DHT22;11207;59.512;18.050;2023-10-19T03:44:39;1.40;99.90
22081;DHT22;11207;59.512;18.050;2023-10-19T03:47:31;1.40;99.90
22081;DHT22;11207;59.512;18.050;2023-10-19T03:50:04;1.30;99.90
22081;DHT22;11207;59.512;18.050;2023-10-19T03:52:35;1.30;99.90
22081;DHT22;11207;59.512;18.050;2023-10-19T03:55:03;1.30;99.90
22081;DHT22;11207;59.512;18.050;2023-10-19T03:57:36;1.30;99.90
22081;DHT22;11207;59.512;18.050;2023-10-19T04:00:07;1.20;99.90
22081;DHT22;11207;59.512;18.050;2023-10-19T04:02:36;1.20;99.90
22081;DHT22;11207;59.512;18.050;2023-10-19T04:05:04;1.00;99.90
22081;DHT22;11207;59.512;18.050;2023-10-19T04:07:30;1.00;99.90
22081;DHT22;11207;59.512;18.050;2023-10-19T04:09:58;1.00;99.90
22081;DHT22;11207;59.512;18.050;2023-10-19T04:12:25;0.90;99.90
22081;DHT22;11207;59.512;18.050;2023-10-19T04:14:54;0.90;99.90
22081;DHT22;11207;59.512;18.050;2023-10-19T04:17:19;0.80;99.90
22081;DHT22;11207;59.512;18.050;2023-10-19T04:19:47;0.80;99.90
22081;DHT22;11207;59.512;18.050;2023-10-19T04:22:14;0.70;99.90
22081;DHT22;11207;59.512;18.050;2023-10-19T04:24:51;0.70;99.90
22081;DHT22;11207;59.512;18.050;2023-10-19T04:27:16;0.70;99.90
22081;DHT22;11207;59.512;18.050;2023-10-19T04:29:42;0.60;99.90
22081;DHT22;11207;59.512;18.050;2023-10-19T04:32:09;0.60;99.90
22081;DHT22;11207;59.512;18.050;2023-10-19T04:34:36;0.50;99.90
22081;DHT22;11207;59.512;18.050;2023-10-19T04:37:04;0.50;99.90
22081;DHT22;11207;59.512;18.050;2023-10-19T04:39:32;0.40;99.90
22081;DHT22;11207;59.512;18.050;2023-10-19T04:42:00;0.50;99.90
22081;DHT22;11207;59.512;18.050;2023-10-19T04:44:26;0.50;99.90
22081;DHT22;11207;59.512;18.050;2023-10-19T04:46:52;0.60;99.90
22081;DHT22;11207;59.512;18.050;2023-10-19T04:49:18;0.50;99.90
22081;DHT22;11207;59.512;18.050;2023-10-19T04:51:44;0.50;99.90
22081;DHT22;11207;59.512;18.050;2023-10-19T04:54:09;0.50;99.90
22081;DHT22;11207;59.512;18.050;2023-10-19T04:56:35;0.40;99.90
22081;DHT22;11207;59.512;18.050;2023-10-19T04:59:02;0.50;99.90
22081;DHT22;11207;59.512;18.050;2023-10-19T05:01:30;0.50;99.90
22081;DHT22;11207;59.512;18.050;2023-10-19T05:03:58;0.50;99.90
22081;DHT22;11207;59.512;18.050;2023-10-19T05:06:25;0.50;99.90
22081;DHT22;11207;59.512;18.050;2023-10-19T05:08:51;0.60;99.90
22081;DHT22;11207;59.512;18.050;2023-10-19T05:11:20;0.70;99.90
22081;DHT22;11207;59.512;18.050;2023-10-19T05:13:46;0.70;99.90
22081;DHT22;11207;59.512;18.050;2023-10-19T05:16:12;0.80;99.90
22081;DHT22;11207;59.512;18.050;2023-10-19T05:18:38;0.80;99.90
22081;DHT22;11207;59.512;18.050;2023-10-19T05:21:04;0.80;99.90
22081;DHT22;11207;59.512;18.050;2023-10-19T05:23:30;0.80;99.90
22081;DHT22;11207;59.512;18.050;2023-10-19T05:26:14;0.90;99.90
22081;DHT22;11207;59.512;18.050;2023-10-19T05:28:40;1.00;99.90
22081;DHT22;11207;59.512;18.050;2023-10-19T05:31:09;1.00;99.90
22081;DHT22;11207;59.512;18.050;2023-10-19T05:33:37;1.00;99.90
22081;DHT22;11207;59.512;18.050;2023-10-19T05:36:03;1.00;99.90
22081;DHT22;11207;59.512;18.050;2023-10-19T05:38:29;1.10;99.90
22081;DHT22;11207;59.512;18.050;2023-10-19T05:40:57;1.10;99.90
22081;DHT22;11207;59.512;18.050;2023-10-19T05:43:26;1.10;99.90
22081;DHT22;11207;59.512;18.050;2023-10-19T05:45:52;1.20;99.90
22081;DHT22;11207;59.512;18.050;2023-10-19T05:48:20;1.20;99.90
22081;DHT22;11207;59.512;18.050;2023-10-19T05:50:46;1.20;99.90
22081;DHT22;11207;59.512;18.050;2023-10-19T05:53:11;1.20;99.90
22081;DHT22;11207;59.512;18.050;2023-10-19T05:55:39;1.20;99.90
22081;DHT22;11207;59.512;18.050;2023-10-19T05:58:05;1.30;99.90
22081;DHT22;11207;59.512;18.050;2023-10-19T06:00:31;1.30;99.90
22081;DHT22;11207;59.512;18.050;2023-10-19T06:02:57;1.30;99.90
22081;DHT22;11207;59.512;18.050;2023-10-19T06:05:25;1.30;99.90
22081;DHT22;11207;59.512;18.050;2023-10-19T06:07:51;1.40;99.90
22081;DHT22;11207;59.512;18.050;2023-10-19T06:10:21;1.40;99.90
22081;DHT22;11207;59.512;18.050;2023-10-19T06:12:51;1.50;99.90
22081;DHT22;11207;59.512;18.050;2023-10-19T06:15:19;1.50;99.90
22081;DHT22;11207;59.512;18.050;2023-10-19T06:17:47;1.50;99.90
22081;DHT22;11207;59.512;18.050;2023-10-19T06:20:14;1.50;99.90
22081;DHT22;11207;59.512;18.050;2023-10-19T06:22:54;1.50;99.90
22081;DHT22;11207;59.512;18.050;2023-10-19T06:25:23;1.60;99.90
22081;DHT22;11207;59.512;18.050;2023-10-19T06:27:50;1.60;99.90
22081;DHT22;11207;59.512;18.050;2023-10-19T06:30:18;1.60;99.90
22081;DHT22;11207;59.512;18.050;2023-10-19T06:32:49;1.70;99.90
22081;DHT22;11207;59.512;18.050;2023-10-19T06:35:19;1.70;99.90
22081;DHT22;11207;59.512;18.050;2023-10-19T06:37:46;1.80;99.90
22081;DHT22;11207;59.512;18.050;2023-10-19T06:40:13;1.80;99.90
22081;DHT22;11207;59.512;18.050;2023-10-19T06:42:44;1.80;99.90
22081;DHT22;11207;59.512;18.050;2023-10-19T06:45:13;1.90;99.90
22081;DHT22;11207;59.512;18.050;2023-10-19T06:47:44;1.90;99.90
22081;DHT22;11207;59.512;18.050;2023-10-19T06:50:12;1.90;99.90
22081;DHT22;11207;59.512;18.050;2023-10-19T06:52:38;2.00;99.90
22081;DHT22;11207;59.512;18.050;2023-10-19T06:55:05;2.00;99.90
22081;DHT22;11207;59.512;18.050;2023-10-19T06:57:33;2.10;99.90
22081;DHT22;11207;59.512;18.050;2023-10-19T06:59:59;2.10;99.90
22081;DHT22;11207;59.512;18.050;2023-10-19T07:02:25;2.20;99.90
22081;DHT22;11207;59.512;18.050;2023-10-19T07:04:52;2.30;99.90
22081;DHT22;11207;59.512;18.050;2023-10-19T07:07:18;2.30;99.90
22081;DHT22;11207;59.512;18.050;2023-10-19T07:09:45;2.30;99.90
22081;DHT22;11207;59.512;18.050;2023-10-19T07:12:11;2.30;99.90
22081;DHT22;11207;59.512;18.050;2023-10-19T07:14:38;2.30;99.90
22081;DHT22;11207;59.512;18.050;2023-10-19T07:17:06;2.40;99.90
22081;DHT22;11207;59.512;18.050;2023-10-19T07:19:33;2.40;99.90
22081;DHT22;11207;59.512;18.050;2023-10-19T07:21:58;2.40;99.90
22081;DHT22;11207;59.512;18.050;2023-10-19T07:24:24;2.50;99.90
22081;DHT22;11207;59.512;18.050;2023-10-19T07:26:50;2.50;99.90
22081;DHT22;11207;59.512;18.050;2023-10-19T07:29:20;2.50;99.90
22081;DHT22;11207;59.512;18.050;2023-10-19T07:31:46;2.50;99.90
22081;DHT22;11207;59.512;18.050;2023-10-19T07:34:12;2.50;99.90
22081;DHT22;11207;59.512;18.050;2023-10-19T07:36:41;2.50;99.90
22081;DHT22;11207;59.512;18.050;2023-10-19T07:39:09;2.40;99.90
22081;DHT22;11207;59.512;18.050;2023-10-19T07:41:40;2.40;99.90
22081;DHT22;11207;59.512;18.050;2023-10-19T07:44:06;2.30;99.90
22081;DHT22;11207;59.512;18.050;2023-10-19T07:46:32;2.30;99.90
22081;DHT22;11207;59.512;18.050;2023-10-19T07:48:57;2.30;99.90
22081;DHT22;11207;59.512;18.050;2023-10-19T07:51:27;2.40;99.90
22081;DHT22;11207;59.512;18.050;2023-10-19T07:53:54;2.50;99.90
22081;DHT22;11207;59.512;18.050;2023-10-19T07:56:20;2.50;99.90
22081;DHT22;11207;59.512;18.050;2023-10-19T07:58:46;2.60;99.90
22081;DHT22;11207;59.512;18.050;2023-10-19T08:01:12;2.70;99.90
22081;DHT22;11207;59.512;18.050;2023-10-19T08:03:38;2.90;99.90
22081;DHT22;11207;59.512;18.050;2023-10-19T08:06:06;3.00;99.90
22081;DHT22;11207;59.512;18.050;2023-10-19T08:08:32;3.00;99.90
22081;DHT22;11207;59.512;18.050;2023-10-19T08:11:01;3.00;99.90
22081;DHT22;11207;59.512;18.050;2023-10-19T08:13:27;3.00;99.90
22081;DHT22;11207;59.512;18.050;2023-10-19T08:15:54;3.00;99.90
22081;DHT22;11207;59.512;18.050;2023-10-19T08:18:20;2.90;99.90
22081;DHT22;11207;59.512;18.050;2023-10-19T08:20:46;2.90;99.90
22081;DHT22;11207;59.512;18.050;2023-10-19T08:23:14;2.90;99.90
22081;DHT22;11207;59.512;18.050;2023-10-19T08:25:43;2.90;99.90
22081;DHT22;11207;59.512;18.050;2023-10-19T08:28:10;3.00;99.90
22081;DHT22;11207;59.512;18.050;2023-10-19T08:30:37;3.00;99.90
22081;DHT22;11207;59.512;18.050;2023-10-19T08:33:03;3.10;99.90
22081;DHT22;11207;59.512;18.050;2023-10-19T08:35:29;3.10;99.90
22081;DHT22;11207;59.512;18.050;2023-10-19T08:37:56;3.10;99.90
22081;DHT22;11207;59.512;18.050;2023-10-19T08:40:25;3.20;99.90
22081;DHT22;11207;59.512;18.050;2023-10-19T08:42:52;3.20;99.90
22081;DHT22;11207;59.512;18.050;2023-10-19T08:45:19;3.30;99.90
22081;DHT22;11207;59.512;18.050;2023-10-19T08:48:00;3.40;99.90
22081;DHT22;11207;59.512;18.050;2023-10-19T08:50:33;3.40;99.90
22081;DHT22;11207;59.512;18.050;2023-10-19T08:53:01;3.40;99.90
22081;DHT22;11207;59.512;18.050;2023-10-19T08:55:31;3.50;99.90
22081;DHT22;11207;59.512;18.050;2023-10-19T08:57:58;3.60;99.90
22081;DHT22;11207;59.512;18.050;2023-10-19T09:00:27;3.60;99.90
22081;DHT22;11207;59.512;18.050;2023-10-19T09:02:55;3.80;99.90
22081;DHT22;11207;59.512;18.050;2023-10-19T09:05:25;3.80;99.90
22081;DHT22;11207;59.512;18.050;2023-10-19T09:07:54;3.90;99.90
22081;DHT22;11207;59.512;18.050;2023-10-19T09:10:22;3.90;99.90
22081;DHT22;11207;59.512;18.050;2023-10-19T09:13:09;4.00;99.90
22081;DHT22;11207;59.512;18.050;2023-10-19T09:15:36;4.10;99.90
22081;DHT22;11207;59.512;18.050;2023-10-19T09:18:20;4.20;99.90
22081;DHT22;11207;59.512;18.050;2023-10-19T09:20:51;4.20;99.90
22081;DHT22;11207;59.512;18.050;2023-10-19T09:23:28;4.10;99.90
22081;DHT22;11207;59.512;18.050;2023-10-19T09:25:57;4.10;99.90
22081;DHT22;11207;59.512;18.050;2023-10-19T09:28:24;4.10;99.90
22081;DHT22;11207;59.512;18.050;2023-10-19T09:30:51;4.10;99.90
22081;DHT22;11207;59.512;18.050;2023-10-19T09:33:17;4.10;99.90
22081;DHT22;11207;59.512;18.050;2023-10-19T09:35:48;4.10;99.90
22081;DHT22;11207;59.512;18.050;2023-10-19T09:38:18;4.00;99.90
22081;DHT22;11207;59.512;18.050;2023-10-19T09:40:55;3.90;99.90
22081;DHT22;11207;59.512;18.050;2023-10-19T09:43:34;3.80;99.90
22081;DHT22;11207;59.512;18.050;2023-10-19T09:46:06;3.70;99.90
22081;DHT22;11207;59.512;18.050;2023-10-19T09:48:32;3.70;99.90
22081;DHT22;11207;59.512;18.050;2023-10-19T09:51:02;3.70;99.90
22081;DHT22;11207;59.512;18.050;2023-10-19T09:53:30;3.70;99.90
22081;DHT22;11207;59.512;18.050;2023-10-19T09:56:00;3.70;99.90
22081;DHT22;11207;59.512;18.050;2023-10-19T09:58:35;3.80;99.90
22081;DHT22;11207;59.512;18.050;2023-10-19T10:01:03;3.90;99.90
22081;DHT22;11207;59.512;18.050;2023-10-19T10:03:52;4.00;99.90
22081;DHT22;11207;59.512;18.050;2023-10-19T10:09:18;4.10;99.90
22081;DHT22;11207;59.512;18.050;2023-10-19T10:11:54;4.20;99.90
22081;DHT22;11207;59.512;18.050;2023-10-19T10:14:22;4.30;99.90
22081;DHT22;11207;59.512;18.050;2023-10-19T10:17:02;4.30;99.90
22081;DHT22;11207;59.512;18.050;2023-10-19T10:19:28;4.30;99.90
22081;DHT22;11207;59.512;18.050;2023-10-19T10:22:10;4.50;99.90
22081;DHT22;11207;59.512;18.050;2023-10-19T10:24:44;4.50;99.90
22081;DHT22;11207;59.512;18.050;2023-10-19T10:27:10;4.50;99.90
22081;DHT22;11207;59.512;18.050;2023-10-19T10:29:59;4.40;99.90
22081;DHT22;11207;59.512;18.050;2023-10-19T10:32:49;4.30;99.90
22081;DHT22;11207;59.512;18.050;2023-10-19T10:38:08;4.30;99.90
22081;DHT22;11207;59.512;18.050;2023-10-19T10:40:48;4.30;99.90
22081;DHT22;11207;59.512;18.050;2023-10-19T10:43:15;4.30;99.90
22081;DHT22;11207;59.512;18.050;2023-10-19T10:45:41;4.30;99.90
22081;DHT22;11207;59.512;18.050;2023-10-19T10:48:14;4.40;99.90
22081;DHT22;11207;59.512;18.050;2023-10-19T10:50:40;4.30;99.90
22081;DHT22;11207;59.512;18.050;2023-10-19T10:53:12;4.30;99.90
22081;DHT22;11207;59.512;18.050;2023-10-19T10:55:38;4.40;99.90
22081;DHT22;11207;59.512;18.050;2023-10-19T10:58:05;4.40;99.90
22081;DHT22;11207;59.512;18.050;2023-10-19T11:00:31;4.40;99.90
22081;DHT22;11207;59.512;18.050;2023-10-19T11:03:05;4.60;99.90
22081;DHT22;11207;59.512;18.050;2023-10-19T11:05:33;4.60;99.90
22081;DHT22;11207;59.512;18.050;2023-10-19T11:08:14;4.50;99.90
22081;DHT22;11207;59.512;18.050;2023-10-19T11:10:47;4.40;99.90
22081;DHT22;11207;59.512;18.050;2023-10-19T11:13:15;4.40;99.90
22081;DHT22;11207;59.512;18.050;2023-10-19T11:15:53;4.40;99.90
22081;DHT22;11207;59.512;18.050;2023-10-19T11:20:58;4.40;99.90
22081;DHT22;11207;59.512;18.050;2023-10-19T11:23:55;4.40;99.90
22081;DHT22;11207;59.512;18.050;2023-10-19T11:26:24;4.50;99.90
22081;DHT22;11207;59.512;18.050;2023-10-19T11:29:00;4.50;99.90
22081;DHT22;11207;59.512;18.050;2023-10-19T11:31:28;4.60;99.90
22081;DHT22;11207;59.512;18.050;2023-10-19T11:34:03;4.60;99.90
22081;DHT22;11207;59.512;18.050;2023-10-19T11:36:29;4.70;99.90
22081;DHT22;11207;59.512;18.050;2023-10-19T11:38:55;4.60;99.90
22081;DHT22;11207;59.512;18.050;2023-10-19T11:41:22;4.60;99.90
22081;DHT22;11207;59.512;18.050;2023-10-19T11:43:49;4.40;99.90
22081;DHT22;11207;59.512;18.050;2023-10-19T11:46:17;4.20;99.90
22081;DHT22;11207;59.512;18.050;2023-10-19T11:48:50;4.20;99.90
22081;DHT22;11207;59.512;18.050;2023-10-19T11:51:16;4.20;99.90
22081;DHT22;11207;59.512;18.050;2023-10-19T11:53:43;4.20;99.90
22081;DHT22;11207;59.512;18.050;2023-10-19T11:56:10;4.10;99.90
22081;DHT22;11207;59.512;18.050;2023-10-19T11:58:39;4.20;99.90
22081;DHT22;11207;59.512;18.050;2023-10-19T12:01:08;4.10;99.90
22081;DHT22;11207;59.512;18.050;2023-10-19T12:03:35;4.00;99.90
22081;DHT22;11207;59.512;18.050;2023-10-19T12:06:04;3.90;99.90
22081;DHT22;11207;59.512;18.050;2023-10-19T12:08:33;3.90;99.90
22081;DHT22;11207;59.512;18.050;2023-10-19T12:11:00;3.90;99.90
22081;DHT22;11207;59.512;18.050;2023-10-19T12:13:45;3.90;99.90
22081;DHT22;11207;59.512;18.050;2023-10-19T12:16:13;4.00;99.90
22081;DHT22;11207;59.512;18.050;2023-10-19T12:18:41;4.10;99.90
22081;DHT22;11207;59.512;18.050;2023-10-19T12:21:10;4.00;99.90
22081;DHT22;11207;59.512;18.050;2023-10-19T12:23:41;4.00;99.90
22081;DHT22;11207;59.512;18.050;2023-10-19T12:26:07;3.90;99.90
22081;DHT22;11207;59.512;18.050;2023-10-19T12:28:41;3.80;99.90
22081;DHT22;11207;59.512;18.050;2023-10-19T12:31:07;3.80;99.90
22081;DHT22;11207;59.512;18.050;2023-10-19T12:33:38;3.70;99.90
22081;DHT22;11207;59.512;18.050;2023-10-19T12:36:05;3.70;99.90
22081;DHT22;11207;59.512;18.050;2023-10-19T12:38:57;3.80;99.90
22081;DHT22;11207;59.512;18.050;2023-10-19T12:41:25;3.80;99.90
22081;DHT22;11207;59.512;18.050;2023-10-19T12:43:52;3.80;99.90
22081;DHT22;11207;59.512;18.050;2023-10-19T12:46:23;3.80;99.90
22081;DHT22;11207;59.512;18.050;2023-10-19T12:48:53;3.90;99.90
22081;DHT22;11207;59.512;18.050;2023-10-19T12:51:25;3.90;99.90
22081;DHT22;11207;59.512;18.050;2023-10-19T12:53:54;4.00;99.90
22081;DHT22;11207;59.512;18.050;2023-10-19T12:56:22;3.90;99.90
22081;DHT22;11207;59.512;18.050;2023-10-19T12:58:52;4.00;99.90
22081;DHT22;11207;59.512;18.050;2023-10-19T13:01:18;4.10;99.90
22081;DHT22;11207;59.512;18.050;2023-10-19T13:03:46;4.10;99.90
22081;DHT22;11207;59.512;18.050;2023-10-19T13:06:14;4.10;99.90
22081;DHT22;11207;59.512;18.050;2023-10-19T13:08:41;4.00;99.90
22081;DHT22;11207;59.512;18.050;2023-10-19T13:11:09;4.00;99.90
22081;DHT22;11207;59.512;18.050;2023-10-19T13:13:37;4.00;99.90
22081;DHT22;11207;59.512;18.050;2023-10-19T13:16:04;4.00;99.90
22081;DHT22;11207;59.512;18.050;2023-10-19T13:18:31;4.00;99.90
22081;DHT22;11207;59.512;18.050;2023-10-19T13:21:00;4.00;99.90
22081;DHT22;11207;59.512;18.050;2023-10-19T13:23:35;4.00;99.90
22081;DHT22;11207;59.512;18.050;2023-10-19T13:26:02;3.90;99.90
22081;DHT22;11207;59.512;18.050;2023-10-19T13:28:44;3.90;99.90
22081;DHT22;11207;59.512;18.050;2023-10-19T13:31:10;3.90;99.90
22081;DHT22;11207;59.512;18.050;2023-10-19T13:33:40;4.00;99.90
22081;DHT22;11207;59.512;18.050;2023-10-19T13:36:09;4.00;99.90
22081;DHT22;11207;59.512;18.050;2023-10-19T13:38:36;4.10;99.90
22081;DHT22;11207;59.512;18.050;2023-10-19T13:41:05;4.00;99.90
22081;DHT22;11207;59.512;18.050;2023-10-19T13:43:38;3.90;99.90
22081;DHT22;11207;59.512;18.050;2023-10-19T13:46:04;3.90;99.90
22081;DHT22;11207;59.512;18.050;2023-10-19T13:48:31;3.90;99.90
22081;DHT22;11207;59.512;18.050;2023-10-19T13:51:00;4.00;99.90
22081;DHT22;11207;59.512;18.050;2023-10-19T13:53:26;4.10;99.90
22081;DHT22;11207;59.512;18.050;2023-10-19T13:55:52;4.10;99.90
22081;DHT22;11207;59.512;18.050;2023-10-19T13:58:19;4.20;99.90
22081;DHT22;11207;59.512;18.050;2023-10-19T14:00:45;4.10;99.90
22081;DHT22;11207;59.512;18.050;2023-10-19T14:03:12;4.10;99.90
22081;DHT22;11207;59.512;18.050;2023-10-19T14:05:43;4.00;99.90
22081;DHT22;11207;59.512;18.050;2023-10-19T14:08:14;3.90;99.90
22081;DHT22;11207;59.512;18.050;2023-10-19T14:10:40;3.80;99.90
22081;DHT22;11207;59.512;18.050;2023-10-19T14:13:11;3.70;99.90
22081;DHT22;11207;59.512;18.050;2023-10-19T14:15:37;3.80;99.90
22081;DHT22;11207;59.512;18.050;2023-10-19T14:18:04;3.70;99.90
22081;DHT22;11207;59.512;18.050;2023-10-19T14:20:32;3.60;99.90
22081;DHT22;11207;59.512;18.050;2023-10-19T14:23:01;3.60;99.90
22081;DHT22;11207;59.512;18.050;2023-10-19T14:25:31;3.50;99.90
22081;DHT22;11207;59.512;18.050;2023-10-19T14:27:58;3.50;99.90
22081;DHT22;11207;59.512;18.050;2023-10-19T14:30:28;3.40;99.90
22081;DHT22;11207;59.512;18.050;2023-10-19T14:32:54;3.30;99.90
22081;DHT22;11207;59.512;18.050;2023-10-19T14:35:21;3.20;99.90
22081;DHT22;11207;59.512;18.050;2023-10-19T14:37:50;3.10;99.90
22081;DHT22;11207;59.512;18.050;2023-10-19T14:40:21;3.00;99.90
22081;DHT22;11207;59.512;18.050;2023-10-19T14:42:51;2.90;99.90
22081;DHT22;11207;59.512;18.050;2023-10-19T14:45:23;2.90;99.90
22081;DHT22;11207;59.512;18.050;2023-10-19T14:47:54;2.90;99.90
22081;DHT22;11207;59.512;18.050;2023-10-19T14:50:21;2.90;99.90
22081;DHT22;11207;59.512;18.050;2023-10-19T14:52:50;2.80;99.90
22081;DHT22;11207;59.512;18.050;2023-10-19T14:55:18;2.80;99.90
22081;DHT22;11207;59.512;18.050;2023-10-19T14:57:47;2.70;99.90
22081;DHT22;11207;59.512;18.050;2023-10-19T15:00:15;2.70;99.90
22081;DHT22;11207;59.512;18.050;2023-10-19T15:02:51;2.70;99.90
22081;DHT22;11207;59.512;18.050;2023-10-19T15:05:17;2.60;99.90
22081;DHT22;11207;59.512;18.050;2023-10-19T15:07:45;2.50;99.90
22081;DHT22;11207;59.512;18.050;2023-10-19T15:10:12;2.40;99.90
22081;DHT22;11207;59.512;18.050;2023-10-19T15:12:39;2.50;99.90
22081;DHT22;11207;59.512;18.050;2023-10-19T15:15:07;2.40;99.90
22081;DHT22;11207;59.512;18.050;2023-10-19T15:17:38;2.30;99.90
22081;DHT22;11207;59.512;18.050;2023-10-19T15:20:06;2.20;99.90
22081;DHT22;11207;59.512;18.050;2023-10-19T15:22:33;2.10;99.90
22081;DHT22;11207;59.512;18.050;2023-10-19T15:24:59;2.00;99.90
22081;DHT22;11207;59.512;18.050;2023-10-19T15:27:27;2.00;99.90
22081;DHT22;11207;59.512;18.050;2023-10-19T15:29:57;2.00;99.90
22081;DHT22;11207;59.512;18.050;2023-10-19T15:32:24;2.00;99.90
22081;DHT22;11207;59.512;18.050;2023-10-19T15:34:51;1.90;99.90
22081;DHT22;11207;59.512;18.050;2023-10-19T15:37:17;1.90;99.90
22081;DHT22;11207;59.512;18.050;2023-10-19T15:39:45;1.90;99.90
22081;DHT22;11207;59.512;18.050;2023-10-19T15:42:11;2.00;99.90
22081;DHT22;11207;59.512;18.050;2023-10-19T15:44:37;2.00;99.90
22081;DHT22;11207;59.512;18.050;2023-10-19T15:47:04;2.10;99.90
22081;DHT22;11207;59.512;18.050;2023-10-19T15:49:36;2.10;99.90
22081;DHT22;11207;59.512;18.050;2023-10-19T15:52:03;2.00;99.90
22081;DHT22;11207;59.512;18.050;2023-10-19T15:54:30;2.00;99.90